Weather observations for the past three days for
Pinal Airpark
Imperial (Metric)
Date Time (mst) Wind (mph) Vis. (mi.) Weather Sky Cond. Temperature (ºF) Relative Humidity Wind Chill (°F) Heat Index (°F) Pressure Precipitation (in)
Air Dwpt 6 hour altimeter (in) sea level (mb) 1 hr 3 hr 6 hr
Max. Min.
01 18:35 Calm 10.00 Fair CLR 91.4 62.6 38% 92 29.92 0.0
01 18:10 N 7 10.00 Fair CLR 91.4 64.4 41% 93 29.92 0.0
01 17:55 NW 6 10.00 Fair CLR 93.2 64.4 39% 95 29.92 0.0
01 17:30 N 6 10.00 Fair CLR 93.2 64.4 39% 95 29.93 0.0
01 17:10 Vrbl 5 10.00 Fair CLR 93.2 62.6 36% 94 29.93 0.0
01 16:50 N 6 10.00 Fair CLR 93.2 62.6 36% 94 29.93 0.0
01 16:35 Calm 10.00 Fair CLR 93.2 64.4 39% 95 29.94 0.0
01 16:10 NW 7 10.00 Fair CLR 93.2 64.4 39% 95 29.94 0.0
01 15:50 Calm 10.00 Fair CLR 93.2 64.4 39% 95 29.95 0.0
01 15:35 Calm 10.00 Fair CLR 93.2 64.4 39% 95 29.95 0.0
01 15:10 Vrbl 3 10.00 Fair CLR 93.2 66.2 41% 96 29.96 0.0
01 14:50 Calm 10.00 Fair CLR 93.2 64.4 39% 95 29.96 0.0
01 14:35 Calm 10.00 Fair CLR 93.2 62.6 36% 94 29.97 0.0
01 14:10 Vrbl 3 10.00 Fair CLR 93.2 62.6 36% 94 29.98 0.0
01 13:50 N 5 10.00 Fair CLR 91.4 64.4 41% 93 30 0.0
01 13:35 W 5 10.00 Fair CLR 91.4 64.4 41% 93 30 0.0
01 13:10 Calm 10.00 Fair CLR 91.4 64.4 41% 93 30.01 0.0
01 12:50 SE 3 10.00 Fair CLR 89.6 64.4 43% 91 30.02 0.0
01 12:35 Calm 10.00 Fair CLR 89.6 64.4 43% 91 30.02 0.0
01 12:10 Calm 10.00 Fair CLR 89.6 64.4 43% 91 30.03 0.0
01 11:50 Calm 10.00 Fair CLR 89.6 64.4 43% 91 30.04 0.0
01 11:35 Calm 10.00 Fair CLR 87.8 66.2 49% 90 30.04 0.0
01 11:15 Calm 10.00 Fair CLR 86 66.2 52% 88 30.04 0.0
01 10:50 Calm 10.00 Fair CLR 86 66.2 52% 88 30.05 0.0
01 10:35 Calm 10.00 Fair CLR 84.2 66.2 55% 87 30.05 0.0
01 10:10 SE 6 10.00 Fair CLR 84.2 66.2 55% 87 30.05 0.0
01 09:50 S 5 10.00 Fair CLR 82.4 68 62% 85 30.05 0.0
01 09:35 S 7 10.00 Fair CLR 82.4 68 62% 85 30.05 0.0
01 09:10 SE 6 10.00 Fair CLR 80.6 68 66% 83 30.05 0.0
01 08:50 SE 5 10.00 Fair CLR 78.8 68 70% 81 30.05 0.0
01 08:35 S 5 10.00 Fair CLR 78.8 69.8 74% 81 30.05 0.0
01 08:15 S 7 10.00 Fair CLR 77 68 74% 79 30.05 0.0
01 07:50 SE 8 10.00 Fair CLR 75.2 68 78% 76 30.04 0.0
01 07:35 S 7 10.00 Fair CLR 75.2 68 78% 76 30.04 0.0
01 07:15 S 6 10.00 Fair CLR 73.4 68 83% 30.04 0.0
01 06:50 SE 7 10.00 Fair CLR 71.6 68 88% 30.03 0.0
01 06:35 Calm 10.00 Fair CLR 71.6 68 88% 30.03 0.0
01 06:10 Calm 10.00 Fair CLR 69.8 68 94% 30.02 0.0
01 05:50 SW 3 10.00 Fair CLR 69.8 68 94% 30.02 0.0
01 05:35 Calm 10.00 Fair CLR 71.6 66.2 83% 30.01 0.0
01 05:15 SE 5 10.00 Fair CLR 73.4 66.2 78% 30.01 0.0
01 04:50 SE 7 10.00 Fair CLR 73.4 66.2 78% 30 0.0
01 04:30 SE 3 10.00 Fair CLR 73.4 68 83% 30 0.0
01 04:10 SE 6 10.00 Fair CLR 73.4 68 83% 29.99 0.0
01 03:50 SE 3 10.00 Fair CLR 71.6 68 88% 30 0.0
01 03:35 Calm 10.00 Fair CLR 71.6 68 88% 30 0.0
01 03:10 S 3 10.00 Fair CLR 71.6 68 88% 30 0.0
01 02:50 SE 3 10.00 Fair CLR 73.4 68 83% 30 0.0
01 02:35 SE 5 10.00 Fair CLR 73.4 68 83% 30 0.0
01 02:10 Calm 10.00 Fair CLR 73.4 68 83% 30 0.0
01 01:50 SE 5 10.00 Fair CLR 73.4 68 83% 29.99 0.0
01 01:35 SE 5 10.00 Fair CLR 73.4 68 83% 30 0.0
01 01:15 SE 5 10.00 Fair CLR 73.4 69.8 89% 30 0.0
01 00:55 S 5 10.00 Fair CLR 73.4 69.8 89% 30 0.0
01 00:35 SE 5 10.00 Fair CLR 75.2 69.8 83% 75 30 0.0
01 00:10 SE 7 10.00 Fair CLR 75.2 69.8 83% 75 30 0.0
31 23:55 SE 6 10.00 Fair CLR 73.4 69.8 89% 30 0.0
31 23:35 S 6 10.00 Fair CLR 75.2 71.6 89% 75 30 0.0
31 23:10 SE 5 10.00 Fair CLR 75.2 69.8 83% 75 29.99 0.0
31 22:55 SE 5 10.00 Fair CLR 75.2 69.8 83% 75 29.99 0.0
31 22:35 SE 6 10.00 Fair CLR 75.2 69.8 83% 75 29.99 0.0
31 22:10 S 3 10.00 Fair CLR 73.4 71.6 94% 30 0.0
31 21:55 Calm 10.00 Fair CLR 73.4 71.6 94% 30 0.0
31 21:35 Calm 10.00 Fair CLR 77 69.8 79% 79 30 0.0
31 21:15 Calm 10.00 Fair CLR 77 71.6 83% 78 30 0.0
31 20:50 E 3 10.00 Fair CLR 77 69.8 79% 79 29.99 0.0
31 20:35 SE 3 10.00 Fair CLR 77 69.8 79% 79 29.99 0.0
31 20:10 Calm 9.00 Fair CLR 77 71.6 83% 78 29.99 0.0
31 19:55 Calm 10.00 Fair CLR 77 71.6 83% 78 29.99 0.0
31 19:35 Calm 10.00 Fair CLR 77 69.8 79% 79 29.98 0.0
31 19:10 Calm 10.00 Fair CLR 78.8 68 70% 81 29.95 0.0
31 18:55 E 5 10.00 Fair CLR 78.8 68 70% 81 29.94 0.0
31 18:35 NE 5 10.00 Fair CLR 78.8 68 70% 81 29.94 0.0
31 18:10 Calm 10.00 Fair CLR 78.8 66.2 65% 81 29.94 0.0
31 17:55 Calm 10.00 Fair CLR 78.8 66.2 65% 81 29.95 0.0
31 17:35 S 5 10.00 Fair CLR 80.6 66.2 62% 83 29.95 0.0
31 17:15 S 5 10.00 NULL NULL 78.8 66.2 65% 81 29.95 0.0
31 16:35 Calm 10.00 NULL NULL 78.8 66.2 65% 81 29.96 0.0
31 16:15 S 5 10.00 NULL NULL 78.8 68 70% 81 29.96 0.0
31 15:50 S 3 10.00 NULL NULL 80.6 66.2 62% 83 29.97 0.0
31 15:35 S 6 10.00 NULL NULL 78.8 66.2 65% 81 29.97 0.0
31 15:10 S 8 G 14 10.00 Fair CLR 80.6 66.2 62% 83 29.99 0.0
31 14:50 SE 13 10.00 Fair CLR 78.8 68 70% 81 30 0.0
31 14:35 SE 9 G 17 10.00 Fair CLR 77 68 74% 79 30.01 0.0
31 14:10 SE 9 G 17 10.00 A Few Clouds FEW110 75.2 66.2 74% 77 30.03 0.0
31 13:50 SE 13 G 20 10.00 Partly Cloudy SCT110 75.2 68 78% 76 30.04 0.0
31 13:35 SE 12 10.00 NULL NULL 73.4 68 83% 30.05 0.0
31 13:10 SE 8 G 14 10.00 Fair CLR 73.4 68 83% 30.06 0.0
31 12:50 S 10 10.00 Fair CLR 71.6 69.8 94% 30.08 0.0
31 12:35 S 8 10.00 Fair CLR 71.6 69.8 94% 30.09 0.0
31 12:15 SE 6 10.00 Thunderstorm in Vicinity Rain CLR 69.8 69.8 100% 30.09 0.0
31 11:50 E 8 5.00 Light Rain Fog/Mist FEW038 SCT049 SCT060 69.8 68 94% 30.09 0.0
31 11:35 E 7 9.00 Thunderstorm in Vicinity Rain NULL 69.8 68 94% 30.11 0.0
31 11:10 E 8 3.00 Thunderstorm in Vicinity Rain Fog/Mist NULL 69.8 69.8 100% 30.11 0.0
31 10:50 E 8 3.00 Thunderstorm in Vicinity Rain Fog/Mist NULL 71.6 69.8 94% 30.13 0.0
31 10:35 E 7 G 13 5.00 Thunderstorm in Vicinity Rain Fog/Mist NULL 69.8 68 94% 30.12 0.0
31 10:15 E 6 6.00 Thunderstorm Light Rain Fog/Mist NULL 71.6 68 88% 30.12 0.0
31 09:50 SE 5 3.00 Thunderstorm in Vicinity Rain Fog/Mist NULL 71.6 68 88% 30.12 0.0
31 09:35 Calm 9.00 Thunderstorm in Vicinity Rain FEW047 SCT080 BKN095 71.6 66.2 83% 30.09 0.0
31 09:15 E 13 8.00 Thunderstorm in Vicinity Rain FEW032 SCT044 BKN080 71.6 66.2 83% 30.08 0.0
31 08:50 S 8 1.00 Heavy Rain Haze BKN032 BKN043 OVC080 73.4 69.8 89% 30.07 0.0
31 08:35 S 6 10.00 Mostly Cloudy SCT075 BKN095 75.2 69.8 83% 75 30.05 0.0
31 08:10 SW 7 10.00 Mostly Cloudy FEW075 BKN095 75.2 68 78% 76 30.04 0.0
31 07:50 SW 7 10.00 Partly Cloudy FEW075 SCT095 75.2 68 78% 76 30.04 0.0
31 07:35 SW 7 10.00 Fair CLR 75.2 68 78% 76 30.03 0.0
31 07:10 E 8 10.00 Fair CLR 75.2 66.2 74% 77 30.01 0.0
31 06:50 E 9 10.00 Thunderstorm in Vicinity Rain FEW040 SCT095 BKN110 73.4 68 83% 30.01 0.0
31 06:35 E 13 G 18 10.00 Thunderstorm in Vicinity Rain FEW043 SCT060 BKN085 71.6 68 88% 29.99 0.0
31 06:10 E 13 9.00 Light Rain NULL 71.6 69.8 94% 30.01 0.0
31 05:50 E 10 G 16 5.00 Thunderstorm in Vicinity Rain Fog/Mist NULL 71.6 69.8 94% 30.01 0.0
31 05:35 E 9 4.00 Thunderstorm Rain Fog/Mist NULL 71.6 69.8 94% 30.01 0.0
31 05:10 E 9 9.00 Thunderstorm in Vicinity Rain NULL 71.6 69.8 94% 30.02 0.0
31 03:50 W 14 G 22 10.00 Thunderstorm in Vicinity BKN070 OVC080 80.6 64.4 58% 82 29.96 0.0
31 03:35 N 9 10.00 Thunderstorm BKN070 OVC085 80.6 64.4 58% 82 29.94 0.0
31 02:50 NW 10 10.00 Thunderstorm in Vicinity FEW050 BKN090 OVC120 82.4 62.6 51% 83 29.93 0.0
31 02:30 NW 7 10.00 Thunderstorm in Vicinity FEW038 BKN090 OVC120 82.4 60.8 48% 83 29.94 0.0
31 02:10 Vrbl 3 10.00 Overcast OVC090 82.4 60.8 48% 83 29.94 0.0
31 01:50 Calm 10.00 Thunderstorm in Vicinity FEW025 SCT050 BKN090 82.4 60.8 48% 83 29.94 0.0
31 01:35 Calm 10.00 Partly Cloudy FEW024 SCT034 SCT044 80.6 62.6 54% 82 29.93 0.0
31 01:15 Calm 10.00 Fair CLR 80.6 60.8 51% 81 29.92 0.0
31 00:50 Calm 10.00 Fair CLR 80.6 62.6 54% 82 29.92 0.0
31 00:35 Calm 10.00 Fair CLR 82.4 60.8 48% 83 29.93 0.0
31 00:10 W 7 10.00 Partly Cloudy SCT018 SCT031 SCT037 82.4 60.8 48% 83 29.94 0.0
30 23:55 Calm 10.00 Mostly Cloudy SCT017 SCT022 BKN031 84.2 60.8 45% 84 29.94 0.0
30 23:35 SE 3 10.00 Mostly Cloudy SCT018 SCT023 BKN034 84.2 60.8 45% 84 29.94 0.0
30 23:10 Calm 10.00 Fair CLR 84.2 60.8 45% 84 29.93 0.0
30 22:55 N 7 G 16 10.00 Fair CLR 84.2 60.8 45% 84 29.93 0.0
30 22:35 N 8 10.00 A Few Clouds FEW060 84.2 60.8 45% 84 29.92 0.0
30 22:10 W 5 10.00 Fair CLR 86 60.8 43% 86 29.92 0.0
30 21:55 W 8 G 15 10.00 A Few Clouds FEW034 87.8 60.8 40% 88 29.92 0.0
30 21:35 W 9 10.00 Fair CLR 89.6 60.8 38% 90 29.92 0.0
30 21:15 SW 5 10.00 A Few Clouds FEW049 89.6 60.8 38% 90 29.91 0.0
30 20:55 W 7 10.00 A Few Clouds FEW047 91.4 57.2 32% 90 29.91 0.0
30 20:35 W 9 10.00 A Few Clouds FEW046 91.4 59 34% 91 29.89 0.0
30 20:10 SW 12 10.00 Fair CLR 91.4 60.8 36% 91 29.88 0.0
30 19:55 SW 12 10.00 Fair CLR 91.4 60.8 36% 91 29.88 0.0
30 19:35 W 13 10.00 Fair CLR 91.4 59 34% 91 29.87 0.0
30 19:10 W 13 10.00 Fair CLR 91.4 60.8 36% 91 29.85 0.0
30 18:55 W 14 10.00 Fair CLR 93.2 59 32% 93 29.84 0.0
30 18:35 SW 8 10.00 Fair CLR 95 59 30% 94 29.84 0.0
30 18:10 W 5 10.00 Fair CLR 98.6 59 27% 98 29.83 0.0
30 17:55 Calm 10.00 Fair CLR 98.6 57.2 25% 98 29.83 0.0
30 17:35 NW 5 10.00 Fair CLR 98.6 57.2 25% 98 29.83 0.0
30 17:10 N 5 10.00 Fair CLR 98.6 57.2 25% 98 29.83 0.0
30 16:50 N 3 10.00 Fair CLR 100.4 57.2 24% 100 29.83 0.0
30 16:35 N 6 9.00 Fair CLR 100.4 57.2 24% 100 29.83 0.0
30 16:10 N 8 10.00 Fair CLR 102.2 59 24% 102 29.84 0.0
30 15:50 N 3 G 14 10.00 Fair CLR 100.4 59 25% 100 29.86 0.0
30 15:35 Calm 10.00 Fair CLR 100.4 59 25% 100 29.86 0.0
30 15:15 SW 6 G 14 10.00 A Few Clouds FEW085 100.4 59 25% 100 29.87 0.0
30 14:50 W 5 10.00 Partly Cloudy SCT085 102.2 59 24% 102 29.88 0.0
30 14:35 Vrbl 5 10.00 A Few Clouds FEW085 102.2 59 24% 102 29.89 0.0
30 14:10 Vrbl 6 10.00 Fair CLR 100.4 59 25% 100 29.91 0.0
30 13:55 Vrbl 5 G 12 10.00 Fair CLR 100.4 59 25% 100 29.92 0.0
30 13:35 Vrbl 6 G 12 10.00 Fair CLR 100.4 59 25% 100 29.93 0.0
30 13:10 Calm 10.00 Fair CLR 100.4 59 25% 100 29.94 0.0
30 12:50 Vrbl 7 G 13 10.00 NULL NULL 98.6 59 27% 98 29.94 0.0
30 12:35 W 7 G 16 10.00 NULL NULL 98.6 59 27% 98 29.95 0.0
30 12:10 Calm 10.00 Fair CLR 98.6 60.8 29% 99 29.96 0.0
30 11:50 Calm 10.00 Fair CLR 96.8 60.8 30% 97 29.97 0.0
30 11:35 E 3 10.00 NULL NULL 96.8 60.8 30% 97 29.98 0.0
30 11:10 SW 5 10.00 NULL NULL 95 60.8 32% 95 29.99 0.0
30 10:50 S 7 10.00 NULL NULL 95 62.6 34% 96 30 0.0
30 10:35 S 8 10.00 Fair CLR 93.2 62.6 36% 94 30 0.0
30 10:10 S 7 10.00 Fair CLR 91.4 64.4 41% 93 30 0.0
30 09:50 S 8 10.00 Fair CLR 89.6 64.4 43% 91 30.01 0.0
30 09:35 Vrbl 6 10.00 Fair CLR 89.6 64.4 43% 91 30.01 0.0
30 09:10 SE 8 10.00 Fair CLR 87.8 64.4 46% 89 30.01 0.0
30 08:50 S 7 10.00 Fair CLR 86 64.4 49% 87 30.01 0.0
30 08:35 S 6 10.00 Fair CLR 84.2 66.2 55% 87 30.01 0.0
30 07:50 SE 6 10.00 Fair CLR 80.6 66.2 62% 83 30.01 0.0
30 07:35 S 6 10.00 NULL NULL 80.6 66.2 62% 83 30.01 0.0
30 07:15 S 8 0.00 NULL NULL 0 0 0% 30.01 0.0
30 06:50 S 12 G 17 10.00 Fair CLR 78.8 64.4 61% 81 30.01 0.0
Date Time (mst) Wind (mph) Vis. (mi.) Weather Sky Cond. Air Dwpt Max. Min. Relative Humidity Wind Chill (°F) Heat Index (°F) altimeter (in) sea level (mb) 1 hr 3 hr 6 hr
6 hour
Temperature (ºF) Pressure Precipitation (in)